sensor_id;sensor_type;location;lat;lon;timestamp;pressure;altitude;pressure_sealevel;temperature;humidity
60417;BME280;46263;44.726;10.396;2023-02-04T00:02:24;100877.38;;;9.65;59.05
60417;BME280;46263;44.726;10.396;2023-02-04T00:04:49;100880.41;;;9.62;59.68
60417;BME280;46263;44.726;10.396;2023-02-04T00:07:15;100882.19;;;9.59;59.23
60417;BME280;46263;44.726;10.396;2023-02-04T00:09:43;100884.72;;;9.57;59.44
60417;BME280;46263;44.726;10.396;2023-02-04T00:12:12;100894.59;;;9.53;59.99
60417;BME280;46263;44.726;10.396;2023-02-04T00:14:37;100895.38;;;9.53;60.06
60417;BME280;46263;44.726;10.396;2023-02-04T00:17:03;100900.66;;;9.46;60.52
60417;BME280;46263;44.726;10.396;2023-02-04T00:19:29;100893.81;;;9.47;60.40
60417;BME280;46263;44.726;10.396;2023-02-04T00:21:54;100898.41;;;9.50;60.56
60417;BME280;46263;44.726;10.396;2023-02-04T00:24:20;100893.31;;;9.54;60.63
60417;BME280;46263;44.726;10.396;2023-02-04T00:26:45;100882.94;;;9.49;60.67
60417;BME280;46263;44.726;10.396;2023-02-04T00:29:11;100890.28;;;9.47;60.39
60417;BME280;46263;44.726;10.396;2023-02-04T00:31:36;100895.09;;;9.51;60.39
60417;BME280;46263;44.726;10.396;2023-02-04T00:34:02;100888.00;;;9.50;60.93
60417;BME280;46263;44.726;10.396;2023-02-04T00:36:28;100881.66;;;9.50;61.20
60417;BME280;46263;44.726;10.396;2023-02-04T00:38:53;100872.75;;;9.46;62.00
60417;BME280;46263;44.726;10.396;2023-02-04T00:41:19;100868.22;;;9.49;62.10
60417;BME280;46263;44.726;10.396;2023-02-04T00:43:44;100869.25;;;9.51;62.05
60417;BME280;46263;44.726;10.396;2023-02-04T00:46:10;100866.94;;;9.49;62.09
60417;BME280;46263;44.726;10.396;2023-02-04T00:48:36;100877.38;;;9.60;61.70
60417;BME280;46263;44.726;10.396;2023-02-04T00:51:01;100874.09;;;9.61;61.16
60417;BME280;46263;44.726;10.396;2023-02-04T00:53:27;100871.31;;;9.67;60.91
60417;BME280;46263;44.726;10.396;2023-02-04T00:55:52;100865.19;;;9.63;60.96
60417;BME280;46263;44.726;10.396;2023-02-04T00:58:18;100872.03;;;9.62;61.01
60417;BME280;46263;44.726;10.396;2023-02-04T01:00:44;100853.28;;;9.57;61.14
60417;BME280;46263;44.726;10.396;2023-02-04T01:03:09;100840.84;;;9.58;61.13
60417;BME280;46263;44.726;10.396;2023-02-04T01:05:36;100838.03;;;9.52;60.62
60417;BME280;46263;44.726;10.396;2023-02-04T01:08:02;100836.25;;;9.39;60.54
60417;BME280;46263;44.726;10.396;2023-02-04T01:10:28;100844.28;;;9.15;60.71
60417;BME280;46263;44.726;10.396;2023-02-04T01:12:53;100846.03;;;9.07;60.48
60417;BME280;46263;44.726;10.396;2023-02-04T01:15:19;100834.63;;;9.10;60.54
60417;BME280;46263;44.726;10.396;2023-02-04T01:17:47;100843.25;;;9.12;60.23
60417;BME280;46263;44.726;10.396;2023-02-04T01:20:13;100817.84;;;8.99;61.02
60417;BME280;46263;44.726;10.396;2023-02-04T01:22:39;100824.69;;;8.98;61.63
60417;BME280;46263;44.726;10.396;2023-02-04T01:25:04;100817.91;;;9.10;61.28
60417;BME280;46263;44.726;10.396;2023-02-04T01:27:30;100812.34;;;9.10;60.95
60417;BME280;46263;44.726;10.396;2023-02-04T01:29:56;100816.63;;;9.06;61.38
60417;BME280;46263;44.726;10.396;2023-02-04T01:32:21;100824.53;;;9.18;60.49
60417;BME280;46263;44.726;10.396;2023-02-04T01:34:47;100821.50;;;9.22;60.56
60417;BME280;46263;44.726;10.396;2023-02-04T01:37:13;100834.91;;;9.23;60.37
60417;BME280;46263;44.726;10.396;2023-02-04T01:39:38;100840.00;;;9.19;60.27
60417;BME280;46263;44.726;10.396;2023-02-04T01:42:04;100826.56;;;9.23;60.14
60417;BME280;46263;44.726;10.396;2023-02-04T01:44:30;100830.13;;;9.29;60.08
60417;BME280;46263;44.726;10.396;2023-02-04T01:46:56;100833.94;;;9.32;59.96
60417;BME280;46263;44.726;10.396;2023-02-04T01:49:22;100823.28;;;9.30;59.93
60417;BME280;46263;44.726;10.396;2023-02-04T01:51:48;100826.84;;;9.31;60.07
60417;BME280;46263;44.726;10.396;2023-02-04T01:54:14;100823.03;;;9.28;60.20
60417;BME280;46263;44.726;10.396;2023-02-04T01:56:45;100823.00;;;9.23;60.37
60417;BME280;46263;44.726;10.396;2023-02-04T01:59:12;100815.69;;;9.31;60.03
60417;BME280;46263;44.726;10.396;2023-02-04T02:01:44;100825.81;;;9.23;59.68
60417;BME280;46263;44.726;10.396;2023-02-04T02:04:13;100839.22;;;9.24;59.96
60417;BME280;46263;44.726;10.396;2023-02-04T02:06:42;100827.09;;;9.27;59.92
60417;BME280;46263;44.726;10.396;2023-02-04T02:09:09;100825.06;;;9.33;60.20
60417;BME280;46263;44.726;10.396;2023-02-04T02:11:34;100822.78;;;9.32;60.17
60417;BME280;46263;44.726;10.396;2023-02-04T02:14:00;100816.19;;;9.35;59.53
60417;BME280;46263;44.726;10.396;2023-02-04T02:16:26;100816.16;;;9.29;59.62
60417;BME280;46263;44.726;10.396;2023-02-04T02:18:51;100814.91;;;9.19;60.01
60417;BME280;46263;44.726;10.396;2023-02-04T02:21:34;100811.59;;;9.21;59.64
60417;BME280;46263;44.726;10.396;2023-02-04T02:26:51;100797.16;;;9.22;58.86
60417;BME280;46263;44.726;10.396;2023-02-04T02:29:18;100795.41;;;9.25;59.03
60417;BME280;46263;44.726;10.396;2023-02-04T02:31:43;100786.53;;;9.26;58.57
60417;BME280;46263;44.726;10.396;2023-02-04T02:34:09;100793.31;;;9.14;58.58
60417;BME280;46263;44.726;10.396;2023-02-04T02:36:35;100787.75;;;9.20;58.60
60417;BME280;46263;44.726;10.396;2023-02-04T02:39:01;100783.19;;;9.17;58.78
60417;BME280;46263;44.726;10.396;2023-02-04T02:41:26;100771.53;;;9.18;58.94
60417;BME280;46263;44.726;10.396;2023-02-04T02:43:52;100775.06;;;9.08;58.78
60417;BME280;46263;44.726;10.396;2023-02-04T02:46:18;100758.28;;;8.91;59.51
60417;BME280;46263;44.726;10.396;2023-02-04T02:48:43;100770.91;;;8.76;59.50
60417;BME280;46263;44.726;10.396;2023-02-04T02:51:09;100755.22;;;8.78;59.58
60417;BME280;46263;44.726;10.396;2023-02-04T02:53:35;100763.09;;;8.85;59.65
60417;BME280;46263;44.726;10.396;2023-02-04T02:56:01;100770.41;;;8.88;59.39
60417;BME280;46263;44.726;10.396;2023-02-04T02:58:31;100759.06;;;8.97;59.14
60417;BME280;46263;44.726;10.396;2023-02-04T03:01:03;100756.81;;;9.01;59.13
60417;BME280;46263;44.726;10.396;2023-02-04T03:04:04;100751.50;;;9.03;59.47
60417;BME280;46263;44.726;10.396;2023-02-04T03:06:25;100767.72;;;9.10;59.59
60417;BME280;46263;44.726;10.396;2023-02-04T03:08:52;100780.63;;;9.13;59.72
60417;BME280;46263;44.726;10.396;2023-02-04T03:11:21;100779.13;;;9.18;59.54
60417;BME280;46263;44.726;10.396;2023-02-04T03:13:47;100792.06;;;9.15;59.25
60417;BME280;46263;44.726;10.396;2023-02-04T03:16:13;100783.44;;;9.13;58.99
60417;BME280;46263;44.726;10.396;2023-02-04T03:18:39;100783.69;;;9.04;58.89
60417;BME280;46263;44.726;10.396;2023-02-04T03:21:05;100783.91;;;9.06;59.08
60417;BME280;46263;44.726;10.396;2023-02-04T03:23:35;100774.28;;;9.07;58.82
60417;BME280;46263;44.726;10.396;2023-02-04T03:26:01;100777.84;;;9.02;59.28
60417;BME280;46263;44.726;10.396;2023-02-04T03:28:29;100780.34;;;8.95;59.35
60417;BME280;46263;44.726;10.396;2023-02-04T03:30:56;100780.56;;;8.86;59.61
60417;BME280;46263;44.726;10.396;2023-02-04T03:33:23;100781.53;;;8.77;60.02
60417;BME280;46263;44.726;10.396;2023-02-04T03:35:50;100765.56;;;8.78;59.70
60417;BME280;46263;44.726;10.396;2023-02-04T03:38:17;100752.91;;;8.77;58.63
60417;BME280;46263;44.726;10.396;2023-02-04T03:40:43;100762.53;;;8.71;58.69
60417;BME280;46263;44.726;10.396;2023-02-04T03:43:09;100782.81;;;8.76;58.29
60417;BME280;46263;44.726;10.396;2023-02-04T03:45:34;100772.66;;;8.73;58.27
60417;BME280;46263;44.726;10.396;2023-02-04T03:48:00;100763.31;;;8.76;58.71
60417;BME280;46263;44.726;10.396;2023-02-04T03:50:26;100764.06;;;8.72;57.19
60417;BME280;46263;44.726;10.396;2023-02-04T03:52:51;100764.06;;;8.72;57.36
60417;BME280;46263;44.726;10.396;2023-02-04T03:55:18;100775.19;;;8.72;56.92
60417;BME280;46263;44.726;10.396;2023-02-04T03:57:44;100771.38;;;8.74;57.01
60417;BME280;46263;44.726;10.396;2023-02-04T04:00:10;100778.72;;;8.72;57.36
60417;BME280;46263;44.726;10.396;2023-02-04T04:02:36;100770.88;;;8.71;57.14
60417;BME280;46263;44.726;10.396;2023-02-04T04:05:02;100769.09;;;8.68;57.26
60417;BME280;46263;44.726;10.396;2023-02-04T04:07:27;100764.50;;;8.65;56.01
60417;BME280;46263;44.726;10.396;2023-02-04T04:09:53;100763.44;;;8.57;55.73
60417;BME280;46263;44.726;10.396;2023-02-04T04:12:19;100775.41;;;8.63;56.13
60417;BME280;46263;44.726;10.396;2023-02-04T04:14:44;100762.72;;;8.62;55.87
60417;BME280;46263;44.726;10.396;2023-02-04T04:17:10;100769.03;;;8.57;55.31
60417;BME280;46263;44.726;10.396;2023-02-04T04:19:35;100771.78;;;8.46;55.48
60417;BME280;46263;44.726;10.396;2023-02-04T04:22:01;100773.28;;;8.47;56.04
60417;BME280;46263;44.726;10.396;2023-02-04T04:24:26;100767.19;;;8.43;55.97
60417;BME280;46263;44.726;10.396;2023-02-04T04:26:52;100756.78;;;8.38;55.95
60417;BME280;46263;44.726;10.396;2023-02-04T04:29:18;100762.88;;;8.42;56.26
60417;BME280;46263;44.726;10.396;2023-02-04T04:31:43;100760.63;;;8.46;56.28
60417;BME280;46263;44.726;10.396;2023-02-04T04:34:09;100758.59;;;8.46;56.15
60417;BME280;46263;44.726;10.396;2023-02-04T04:36:35;100759.38;;;8.47;55.93
60417;BME280;46263;44.726;10.396;2023-02-04T04:39:02;100762.66;;;8.51;56.18
60417;BME280;46263;44.726;10.396;2023-02-04T04:41:27;100747.00;;;8.59;56.00
60417;BME280;46263;44.726;10.396;2023-02-04T04:43:53;100744.22;;;8.59;56.14
60417;BME280;46263;44.726;10.396;2023-02-04T04:46:19;100748.06;;;8.67;56.80
60417;BME280;46263;44.726;10.396;2023-02-04T04:48:44;100754.41;;;8.67;56.74
60417;BME280;46263;44.726;10.396;2023-02-04T04:51:10;100737.13;;;8.58;56.79
60417;BME280;46263;44.726;10.396;2023-02-04T04:53:35;100757.13;;;8.56;56.73
60417;BME280;46263;44.726;10.396;2023-02-04T04:56:01;100762.47;;;8.60;56.83
60417;BME280;46263;44.726;10.396;2023-02-04T04:58:27;100755.38;;;8.59;56.73
60417;BME280;46263;44.726;10.396;2023-02-04T05:00:52;100759.63;;;8.49;57.34
60417;BME280;46263;44.726;10.396;2023-02-04T05:03:18;100764.72;;;8.50;57.21
60417;BME280;46263;44.726;10.396;2023-02-04T05:05:43;100767.53;;;8.56;56.91
60417;BME280;46263;44.726;10.396;2023-02-04T05:08:09;100751.81;;;8.58;57.35
60417;BME280;46263;44.726;10.396;2023-02-04T05:10:41;100750.34;;;8.63;56.90
60417;BME280;46263;44.726;10.396;2023-02-04T05:13:06;100750.56;;;8.65;57.08
60417;BME280;46263;44.726;10.396;2023-02-04T05:15:32;100736.63;;;8.54;58.31
60417;BME280;46263;44.726;10.396;2023-02-04T05:17:58;100731.88;;;8.71;58.19
60417;BME280;46263;44.726;10.396;2023-02-04T05:20:24;100748.38;;;8.79;58.25
60417;BME280;46263;44.726;10.396;2023-02-04T05:22:50;100753.47;;;8.86;57.96
60417;BME280;46263;44.726;10.396;2023-02-04T05:25:15;100769.66;;;8.82;58.07
60417;BME280;46263;44.726;10.396;2023-02-04T05:27:42;100769.16;;;8.89;58.15
60417;BME280;46263;44.726;10.396;2023-02-04T05:30:11;100757.25;;;8.89;57.89
60417;BME280;46263;44.726;10.396;2023-02-04T05:32:37;100765.88;;;8.85;57.48
60417;BME280;46263;44.726;10.396;2023-02-04T05:35:04;100764.06;;;8.82;57.38
60417;BME280;46263;44.726;10.396;2023-02-04T05:37:30;100760.53;;;8.82;57.88
60417;BME280;46263;44.726;10.396;2023-02-04T05:39:56;100759.28;;;8.83;58.50
60417;BME280;46263;44.726;10.396;2023-02-04T05:42:21;100761.28;;;8.82;58.64
60417;BME280;46263;44.726;10.396;2023-02-04T05:44:47;100762.56;;;8.76;57.85
60417;BME280;46263;44.726;10.396;2023-02-04T05:47:13;100755.22;;;8.78;58.40
60417;BME280;46263;44.726;10.396;2023-02-04T05:49:38;100751.41;;;8.81;58.92
60417;BME280;46263;44.726;10.396;2023-02-04T05:52:04;100773.69;;;8.81;58.98
60417;BME280;46263;44.726;10.396;2023-02-04T05:54:30;100771.41;;;8.80;59.33
60417;BME280;46263;44.726;10.396;2023-02-04T05:56:55;100772.41;;;8.77;59.49
60417;BME280;46263;44.726;10.396;2023-02-04T05:59:21;100775.69;;;8.75;59.92
60417;BME280;46263;44.726;10.396;2023-02-04T06:01:46;100774.44;;;8.76;59.18
60417;BME280;46263;44.726;10.396;2023-02-04T06:04:12;100765.53;;;8.72;59.10
60417;BME280;46263;44.726;10.396;2023-02-04T06:06:39;100771.94;;;8.78;59.15
60417;BME280;46263;44.726;10.396;2023-02-04T06:09:05;100774.22;;;8.85;59.52
60417;BME280;46263;44.726;10.396;2023-02-04T06:11:30;100769.94;;;8.90;58.86
60417;BME280;46263;44.726;10.396;2023-02-04T06:13:56;100780.06;;;8.87;58.68
60417;BME280;46263;44.726;10.396;2023-02-04T06:16:22;100792.97;;;8.85;58.29
60417;BME280;46263;44.726;10.396;2023-02-04T06:18:47;100781.81;;;8.79;58.69
60417;BME280;46263;44.726;10.396;2023-02-04T06:21:13;100792.97;;;8.79;58.40
60417;BME280;46263;44.726;10.396;2023-02-04T06:23:38;100803.06;;;8.72;59.70
60417;BME280;46263;44.726;10.396;2023-02-04T06:26:04;100794.94;;;8.68;59.17
60417;BME280;46263;44.726;10.396;2023-02-04T06:28:30;100779.44;;;8.62;59.06
60417;BME280;46263;44.726;10.396;2023-02-04T06:30:55;100799.97;;;8.64;59.48
60417;BME280;46263;44.726;10.396;2023-02-04T06:33:21;100810.09;;;8.62;59.04
60417;BME280;46263;44.726;10.396;2023-02-04T06:35:49;100792.84;;;8.58;58.68
60417;BME280;46263;44.726;10.396;2023-02-04T06:38:14;100803.50;;;8.59;58.26
60417;BME280;46263;44.726;10.396;2023-02-04T06:40:40;100812.56;;;8.54;58.09
60417;BME280;46263;44.726;10.396;2023-02-04T06:43:06;100809.78;;;8.54;57.93
60417;BME280;46263;44.726;10.396;2023-02-04T06:45:31;100800.13;;;8.50;57.17
60417;BME280;46263;44.726;10.396;2023-02-04T06:47:57;100807.19;;;8.45;57.53
60417;BME280;46263;44.726;10.396;2023-02-04T06:50:23;100804.91;;;8.44;58.36
60417;BME280;46263;44.726;10.396;2023-02-04T06:52:48;100806.13;;;8.32;58.05
60417;BME280;46263;44.726;10.396;2023-02-04T06:55:15;100821.09;;;8.40;58.01
60417;BME280;46263;44.726;10.396;2023-02-04T06:57:41;100811.47;;;8.41;58.49
60417;BME280;46263;44.726;10.396;2023-02-04T07:00:08;100805.66;;;8.44;57.84
60417;BME280;46263;44.726;10.396;2023-02-04T07:02:35;100800.78;;;8.34;58.98
60417;BME280;46263;44.726;10.396;2023-02-04T07:05:02;100834.56;;;8.47;59.14
60417;BME280;46263;44.726;10.396;2023-02-04T07:07:28;100816.81;;;8.44;58.71
60417;BME280;46263;44.726;10.396;2023-02-04T07:09:53;100823.19;;;8.50;58.24
60417;BME280;46263;44.726;10.396;2023-02-04T07:12:19;100824.25;;;8.58;58.25
60417;BME280;46263;44.726;10.396;2023-02-04T07:14:45;100834.13;;;8.59;58.43
60417;BME280;46263;44.726;10.396;2023-02-04T07:17:10;100814.16;;;8.66;58.72
60417;BME280;46263;44.726;10.396;2023-02-04T07:19:36;100823.56;;;8.74;58.24
60417;BME280;46263;44.726;10.396;2023-02-04T07:22:02;100839.81;;;8.81;58.30
60417;BME280;46263;44.726;10.396;2023-02-04T07:24:28;100821.00;;;8.65;58.74
60417;BME280;46263;44.726;10.396;2023-02-04T07:26:54;100840.81;;;8.78;58.61
60417;BME280;46263;44.726;10.396;2023-02-04T07:29:19;100838.84;;;8.84;58.43
60417;BME280;46263;44.726;10.396;2023-02-04T07:31:45;100829.25;;;8.96;58.32
60417;BME280;46263;44.726;10.396;2023-02-04T07:34:14;100835.63;;;9.07;57.86
60417;BME280;46263;44.726;10.396;2023-02-04T07:36:40;100848.09;;;9.17;58.06
60417;BME280;46263;44.726;10.396;2023-02-04T07:39:06;100836.44;;;9.24;57.53
60417;BME280;46263;44.726;10.396;2023-02-04T07:41:32;100836.50;;;9.41;57.24
60417;BME280;46263;44.726;10.396;2023-02-04T07:43:58;100843.88;;;9.49;57.45
60417;BME280;46263;44.726;10.396;2023-02-04T07:46:24;100843.63;;;9.52;57.56
60417;BME280;46263;44.726;10.396;2023-02-04T07:48:49;100855.59;;;9.69;56.87
60417;BME280;46263;44.726;10.396;2023-02-04T07:51:15;100847.22;;;9.69;56.90
60417;BME280;46263;44.726;10.396;2023-02-04T07:53:40;100866.22;;;9.71;57.12
60417;BME280;46263;44.726;10.396;2023-02-04T07:56:06;100839.59;;;9.64;57.51
60417;BME280;46263;44.726;10.396;2023-02-04T07:58:32;100852.56;;;9.84;57.17
60417;BME280;46263;44.726;10.396;2023-02-04T08:00:57;100863.50;;;9.93;57.11
60417;BME280;46263;44.726;10.396;2023-02-04T08:03:23;100861.50;;;9.99;57.35
60417;BME280;46263;44.726;10.396;2023-02-04T08:05:49;100863.03;;;10.05;57.38
60417;BME280;46263;44.726;10.396;2023-02-04T08:08:14;100883.34;;;10.17;57.45
60417;BME280;46263;44.726;10.396;2023-02-04T08:10:40;100873.94;;;10.25;57.52
60417;BME280;46263;44.726;10.396;2023-02-04T08:13:06;100891.19;;;10.45;56.94
60417;BME280;46263;44.726;10.396;2023-02-04T08:15:31;100869.56;;;10.51;57.24
60417;BME280;46263;44.726;10.396;2023-02-04T08:17:57;100875.16;;;10.57;57.47
60417;BME280;46263;44.726;10.396;2023-02-04T08:20:23;100874.38;;;10.67;57.22
60417;BME280;46263;44.726;10.396;2023-02-04T08:22:48;100877.41;;;10.80;57.41
60417;BME280;46263;44.726;10.396;2023-02-04T08:25:14;100892.41;;;10.88;57.28
60417;BME280;46263;44.726;10.396;2023-02-04T08:27:40;100876.88;;;10.98;57.23
60417;BME280;46263;44.726;10.396;2023-02-04T08:30:06;100895.88;;;11.10;57.61
60417;BME280;46263;44.726;10.396;2023-02-04T08:32:32;100871.94;;;11.20;56.78
60417;BME280;46263;44.726;10.396;2023-02-04T08:34:57;100879.50;;;11.31;56.82
60417;BME280;46263;44.726;10.396;2023-02-04T08:37:23;100874.38;;;11.46;57.14
60417;BME280;46263;44.726;10.396;2023-02-04T08:39:49;100867.19;;;11.61;56.96
60417;BME280;46263;44.726;10.396;2023-02-04T08:42:15;100854.94;;;11.70;56.51
60417;BME280;46263;44.726;10.396;2023-02-04T08:44:41;100872.97;;;11.74;57.71
60417;BME280;46263;44.726;10.396;2023-02-04T08:47:07;100871.41;;;11.79;58.55
60417;BME280;46263;44.726;10.396;2023-02-04T08:49:32;100883.31;;;11.90;58.31
60417;BME280;46263;44.726;10.396;2023-02-04T08:51:58;100873.53;;;12.02;58.12
60417;BME280;46263;44.726;10.396;2023-02-04T08:54:23;100867.84;;;12.13;56.75
60417;BME280;46263;44.726;10.396;2023-02-04T08:56:50;100873.34;;;12.24;56.94
60417;BME280;46263;44.726;10.396;2023-02-04T08:59:16;100867.41;;;12.33;56.65
60417;BME280;46263;44.726;10.396;2023-02-04T09:01:42;100883.63;;;12.45;56.55
60417;BME280;46263;44.726;10.396;2023-02-04T09:04:07;100886.09;;;12.54;56.35
60417;BME280;46263;44.726;10.396;2023-02-04T09:06:33;100870.69;;;12.66;56.94
60417;BME280;46263;44.726;10.396;2023-02-04T09:08:58;100888.41;;;12.79;57.32
60417;BME280;46263;44.726;10.396;2023-02-04T09:11:24;100891.88;;;12.91;56.74
60417;BME280;46263;44.726;10.396;2023-02-04T09:13:50;100896.06;;;13.03;55.87
60417;BME280;46263;44.726;10.396;2023-02-04T09:16:15;100887.53;;;13.14;56.93
60417;BME280;46263;44.726;10.396;2023-02-04T09:18:42;100909.38;;;13.21;55.51
60417;BME280;46263;44.726;10.396;2023-02-04T09:21:08;100909.78;;;13.30;54.72
60417;BME280;46263;44.726;10.396;2023-02-04T09:23:33;100908.97;;;13.35;54.57
60417;BME280;46263;44.726;10.396;2023-02-04T09:25:59;100900.47;;;13.41;53.45
60417;BME280;46263;44.726;10.396;2023-02-04T09:28:25;100918.25;;;13.49;55.02
60417;BME280;46263;44.726;10.396;2023-02-04T09:30:51;100916.38;;;13.56;53.17
60417;BME280;46263;44.726;10.396;2023-02-04T09:33:17;100918.56;;;13.63;51.62
60417;BME280;46263;44.726;10.396;2023-02-04T09:35:42;100921.31;;;13.69;52.57
60417;BME280;46263;44.726;10.396;2023-02-04T09:38:08;100939.81;;;13.77;51.59
60417;BME280;46263;44.726;10.396;2023-02-04T09:40:36;100924.19;;;13.82;51.25
60417;BME280;46263;44.726;10.396;2023-02-04T09:43:05;100937.06;;;13.90;51.34
60417;BME280;46263;44.726;10.396;2023-02-04T09:45:33;100933.44;;;13.95;51.67
60417;BME280;46263;44.726;10.396;2023-02-04T09:48:02;100944.50;;;14.06;50.98
60417;BME280;46263;44.726;10.396;2023-02-04T09:50:29;100945.53;;;14.09;50.01
60417;BME280;46263;44.726;10.396;2023-02-04T09:53:02;100937.78;;;14.15;49.62
60417;BME280;46263;44.726;10.396;2023-02-04T09:55:32;100949.16;;;14.22;49.96
60417;BME280;46263;44.726;10.396;2023-02-04T09:57:58;100935.56;;;14.26;49.13
60417;BME280;46263;44.726;10.396;2023-02-04T10:00:27;100943.91;;;14.32;49.76
60417;BME280;46263;44.726;10.396;2023-02-04T10:02:57;100953.66;;;14.31;49.83
60417;BME280;46263;44.726;10.396;2023-02-04T10:05:28;100956.06;;;14.39;49.50
60417;BME280;46263;44.726;10.396;2023-02-04T10:07:55;100952.72;;;14.41;49.24
60417;BME280;46263;44.726;10.396;2023-02-04T10:10:22;100934.47;;;14.47;50.20
60417;BME280;46263;44.726;10.396;2023-02-04T10:12:52;100947.13;;;14.54;50.74
60417;BME280;46263;44.726;10.396;2023-02-04T10:15:19;100948.88;;;14.57;51.23
60417;BME280;46263;44.726;10.396;2023-02-04T10:17:51;100943.69;;;14.61;52.17
60417;BME280;46263;44.726;10.396;2023-02-04T10:20:20;100930.06;;;14.65;52.04
60417;BME280;46263;44.726;10.396;2023-02-04T10:22:47;100934.84;;;14.70;52.03
60417;BME280;46263;44.726;10.396;2023-02-04T10:25:18;100956.41;;;14.80;51.88
60417;BME280;46263;44.726;10.396;2023-02-04T10:27:58;100932.28;;;14.85;51.02
60417;BME280;46263;44.726;10.396;2023-02-04T10:30:26;100935.97;;;14.93;50.87
60417;BME280;46263;44.726;10.396;2023-02-04T10:32:53;100937.03;;;15.03;50.58
60417;BME280;46263;44.726;10.396;2023-02-04T10:35:20;100933.63;;;15.10;49.89
60417;BME280;46263;44.726;10.396;2023-02-04T10:37:47;100938.59;;;15.16;50.28
60417;BME280;46263;44.726;10.396;2023-02-04T10:40:29;100934.25;;;15.15;49.56
60417;BME280;46263;44.726;10.396;2023-02-04T10:42:55;100926.22;;;15.19;49.97
60417;BME280;46263;44.726;10.396;2023-02-04T10:45:22;100934.69;;;15.19;48.76
60417;BME280;46263;44.726;10.396;2023-02-04T10:47:50;100929.28;;;15.21;49.25
60417;BME280;46263;44.726;10.396;2023-02-04T10:50:21;100934.50;;;15.30;49.16
60417;BME280;46263;44.726;10.396;2023-02-04T10:52:52;100936.66;;;15.37;48.82
60417;BME280;46263;44.726;10.396;2023-02-04T10:55:22;100923.53;;;15.40;49.16
60417;BME280;46263;44.726;10.396;2023-02-04T10:57:50;100910.13;;;15.46;49.33
60417;BME280;46263;44.726;10.396;2023-02-04T11:00:24;100923.44;;;15.45;47.52
60417;BME280;46263;44.726;10.396;2023-02-04T11:05:34;100930.03;;;15.61;48.27
60417;BME280;46263;44.726;10.396;2023-02-04T11:08:01;100933.59;;;15.61;48.10
60417;BME280;46263;44.726;10.396;2023-02-04T11:10:31;100923.75;;;15.68;48.65
60417;BME280;46263;44.726;10.396;2023-02-04T11:15:40;100924.50;;;15.68;46.20
60417;BME280;46263;44.726;10.396;2023-02-04T11:20:47;100914.56;;;15.88;47.06
60417;BME280;46263;44.726;10.396;2023-02-04T11:23:29;100909.66;;;16.01;46.10
60417;BME280;46263;44.726;10.396;2023-02-04T11:31:38;100916.56;;;16.13;45.09
60417;BME280;46263;44.726;10.396;2023-02-04T11:37:01;100912.44;;;16.14;46.68
60417;BME280;46263;44.726;10.396;2023-02-04T11:39:35;100914.47;;;16.26;45.77
60417;BME280;46263;44.726;10.396;2023-02-04T11:42:02;100901.97;;;16.35;45.98
60417;BME280;46263;44.726;10.396;2023-02-04T11:44:28;100905.81;;;16.45;45.60
60417;BME280;46263;44.726;10.396;2023-02-04T11:46:55;100906.69;;;16.40;45.55
60417;BME280;46263;44.726;10.396;2023-02-04T11:49:22;100895.00;;;16.36;45.82
60417;BME280;46263;44.726;10.396;2023-02-04T11:51:49;100894.75;;;16.47;45.71
60417;BME280;46263;44.726;10.396;2023-02-04T11:54:16;100892.25;;;16.64;45.98
60417;BME280;46263;44.726;10.396;2023-02-04T11:56:44;100897.75;;;16.69;45.67
60417;BME280;46263;44.726;10.396;2023-02-04T11:59:11;100895.63;;;16.62;45.33
60417;BME280;46263;44.726;10.396;2023-02-04T12:01:38;100903.22;;;16.67;45.15
60417;BME280;46263;44.726;10.396;2023-02-04T12:04:18;100889.56;;;16.78;45.50
60417;BME280;46263;44.726;10.396;2023-02-04T12:06:56;100890.16;;;16.84;45.52
60417;BME280;46263;44.726;10.396;2023-02-04T12:09:24;100899.53;;;16.79;44.40
60417;BME280;46263;44.726;10.396;2023-02-04T12:11:56;100900.97;;;16.93;44.58
60417;BME280;46263;44.726;10.396;2023-02-04T12:14:28;100891.56;;;16.98;44.40
60417;BME280;46263;44.726;10.396;2023-02-04T12:16:55;100894.81;;;17.02;44.26
60417;BME280;46263;44.726;10.396;2023-02-04T12:19:21;100882.19;;;17.03;43.88
60417;BME280;46263;44.726;10.396;2023-02-04T12:21:47;100878.47;;;17.08;44.74
60417;BME280;46263;44.726;10.396;2023-02-04T12:24:12;100880.97;;;17.19;46.55
60417;BME280;46263;44.726;10.396;2023-02-04T12:26:38;100882.50;;;17.20;45.60
60417;BME280;46263;44.726;10.396;2023-02-04T12:29:03;100887.03;;;17.23;44.42
60417;BME280;46263;44.726;10.396;2023-02-04T12:31:31;100881.38;;;17.23;44.94
60417;BME280;46263;44.726;10.396;2023-02-04T12:33:57;100884.97;;;17.24;44.88
60417;BME280;46263;44.726;10.396;2023-02-04T12:36:23;100880.69;;;17.30;44.28
60417;BME280;46263;44.726;10.396;2023-02-04T12:38:49;100882.19;;;17.31;43.95
60417;BME280;46263;44.726;10.396;2023-02-04T12:41:14;100874.63;;;17.26;44.56
60417;BME280;46263;44.726;10.396;2023-02-04T12:43:40;100880.69;;;17.30;44.33
60417;BME280;46263;44.726;10.396;2023-02-04T12:46:05;100879.00;;;17.35;44.77
60417;BME280;46263;44.726;10.396;2023-02-04T12:48:31;100883.00;;;17.39;44.74
60417;BME280;46263;44.726;10.396;2023-02-04T12:50:57;100879.06;;;17.42;44.01
60417;BME280;46263;44.726;10.396;2023-02-04T12:53:22;100883.19;;;17.41;43.20
60417;BME280;46263;44.726;10.396;2023-02-04T12:55:48;100890.94;;;17.48;42.55
60417;BME280;46263;44.726;10.396;2023-02-04T12:58:13;100887.91;;;17.46;43.19
60417;BME280;46263;44.726;10.396;2023-02-04T13:00:39;100884.38;;;17.53;42.73
60417;BME280;46263;44.726;10.396;2023-02-04T13:03:06;100883.25;;;17.56;44.02